Main page
METAR-TAF:

METAR-TAF

Airports :

Brasília International Airport

Brasília, Brazilian Federal District, Brazil

latitude: 15-52S, longitude: 047-56W, elevation: 1061 m

Current weather observation

The report was made 11 minutes ago, at 10:00 UTC
Calm wind
Temperature 23°C
Humidity 73%
Pressure 1018 hPa
Visibility 10 km or more
no clouds below 1500 m and no cumulonimbus

METAR: SBBR 141000Z 00000KT CAVOK 23/18 Q1018

Time: 08:11 (10:11 UTC)

Forecast

The report was made 6 hours and 11 minutes ago, at 04:00 UTC
Forecast valid from 14 at 06 UTC to 15 at 06 UTC
Wind 9 kt from the East/Northeast
Visibility 10 km or more
Few clouds at a height of 3000 ft
Few clouds at a height of 3500 ft, Towering cumulus.
Becoming
from 15 at 00 UTC to 15 at 02 UTC
Visibility 10 km or more
no clouds below 1500 m and no cumulonimbus

TAF: SBBR 140400Z 1406/1506 06009KT CAVOK TN20/1407Z TX34/1417Z 1416/1418 9999 FEW030 FEW035TCU BECMG 1500/1502 CAVOK RMK PED

Weather observations and forecasts of more than 4000 airports (METAR and TAF reports).

The available stations are represented by yellow and red dots on the map.

Hover mouse over dot to see the name of the station.

Then click to see weather observations and forecasts.

To change the map : click on the green buttons with a black cross to zoom in, on the green button with a dash to zoom out, or on the green arrows for adjacent maps.


METAR-TAF: